createdAt,value
2023-03-20T00:00:15.813Z,6.47
2023-03-20T00:03:20.208Z,6.19
2023-03-20T00:06:03.527Z,6.24
2023-03-20T00:08:38.639Z,6.30
2023-03-20T00:11:09.309Z,6.44
2023-03-20T00:13:48.525Z,6.45
2023-03-20T00:16:20.692Z,6.49
2023-03-20T00:18:49.886Z,6.47
2023-03-20T00:21:40.187Z,6.44
2023-03-20T00:24:22.020Z,6.43
2023-03-20T00:26:55.388Z,6.49
2023-03-20T00:29:50.309Z,6.54
2023-03-20T00:32:24.128Z,6.48
2023-03-20T00:34:54.092Z,6.24
2023-03-20T00:37:27.418Z,6.32
2023-03-20T00:39:56.713Z,6.50
2023-03-20T00:42:46.050Z,6.55
2023-03-20T00:45:58.386Z,6.43
2023-03-20T00:48:37.749Z,6.48
2023-03-20T00:51:04.953Z,6.65
2023-03-20T00:54:11.264Z,6.77
2023-03-20T00:57:17.734Z,6.39
2023-03-20T01:00:26.132Z,6.32
2023-03-20T01:03:30.154Z,6.35
2023-03-20T01:06:32.733Z,6.50
2023-03-20T01:09:27.142Z,6.60
2023-03-20T01:12:45.391Z,6.78
2023-03-20T01:15:33.408Z,6.87
2023-03-20T01:18:05.889Z,6.98
2023-03-20T01:20:45.452Z,7.16
2023-03-20T01:23:26.858Z,7.25
2023-03-20T01:25:56.657Z,7.30
2023-03-20T01:29:07.768Z,7.38
2023-03-20T01:32:31.386Z,7.28
2023-03-20T01:34:58.496Z,7.36
2023-03-20T01:37:38.669Z,7.32
2023-03-20T01:40:45.965Z,7.34
2023-03-20T01:43:16.858Z,7.33
2023-03-20T01:46:05.673Z,7.36
2023-03-20T01:49:00.148Z,7.36
2023-03-20T01:51:37.072Z,7.42
2023-03-20T01:54:31.189Z,7.38
2023-03-20T01:57:34.309Z,7.37
2023-03-20T02:00:19.343Z,7.26
2023-03-20T02:03:10.196Z,7.28
2023-03-20T02:06:23.851Z,7.37
2023-03-20T02:09:54.152Z,7.31
2023-03-20T02:13:07.976Z,7.13
2023-03-20T02:16:26.337Z,7.16
2023-03-20T02:19:41.027Z,7.27
2023-03-20T02:22:41.396Z,7.30
2023-03-20T02:25:55.730Z,7.33
2023-03-20T02:28:55.054Z,7.42
2023-03-20T02:32:18.974Z,7.49
2023-03-20T02:35:10.766Z,7.24
2023-03-20T02:38:39.701Z,7.15
2023-03-20T02:41:35.131Z,7.18
2023-03-20T02:45:11.562Z,7.25
2023-03-20T02:48:24.691Z,7.37
2023-03-20T02:51:37.320Z,7.55
2023-03-20T02:55:04.059Z,7.58
2023-03-20T02:58:03.142Z,7.67
2023-03-20T03:00:41.351Z,7.83
2023-03-20T03:03:34.035Z,8.00
2023-03-20T03:06:22.288Z,8.04
2023-03-20T03:09:34.367Z,8.07
2023-03-20T03:12:36.819Z,8.11
2023-03-20T03:15:20.732Z,8.13
2023-03-20T03:17:57.076Z,8.19
2023-03-20T03:21:30.125Z,8.32
2023-03-20T03:24:40.732Z,8.25
2023-03-20T03:27:36.854Z,8.23
2023-03-20T03:30:47.190Z,8.21
2023-03-20T03:34:10.601Z,8.21
2023-03-20T03:37:30.676Z,8.21
2023-03-20T03:40:07.563Z,8.18
2023-03-20T03:42:52.039Z,8.12
2023-03-20T03:45:46.181Z,8.17
2023-03-20T03:49:09.566Z,8.14
2023-03-20T03:52:21.914Z,8.21
2023-03-20T03:55:14.648Z,8.21
2023-03-20T03:58:27.817Z,8.27
2023-03-20T04:01:13.231Z,8.32
2023-03-20T04:03:56.201Z,8.31
2023-03-20T04:07:37.192Z,8.32
2023-03-20T04:10:20.894Z,8.20
2023-03-20T04:12:58.113Z,8.36
2023-03-20T04:16:16.901Z,8.46
2023-03-20T04:19:03.800Z,8.36
2023-03-20T04:21:46.417Z,8.37
2023-03-20T04:24:41.109Z,8.51
2023-03-20T04:27:57.473Z,8.63
2023-03-20T04:31:20.539Z,8.74
2023-03-20T04:34:42.178Z,8.75
2023-03-20T04:38:04.676Z,8.69
2023-03-20T04:41:24.047Z,8.80
2023-03-20T04:44:27.121Z,8.93
2023-03-20T04:47:36.946Z,8.93
2023-03-20T04:50:08.696Z,8.97
2023-03-20T04:53:28.202Z,9.09
2023-03-20T04:56:50.929Z,9.12
2023-03-20T04:59:30.697Z,9.04
2023-03-20T05:02:24.718Z,9.06
2023-03-20T05:05:47.655Z,9.04
2023-03-20T05:08:55.396Z,9.08
2023-03-20T05:12:21.323Z,9.14
2023-03-20T05:15:29.292Z,9.19
2023-03-20T05:19:06.630Z,9.25
2023-03-20T05:22:52.402Z,9.23
2023-03-20T05:26:54.878Z,9.20
2023-03-20T05:30:43.583Z,9.13
2023-03-20T05:34:41.019Z,9.20
2023-03-20T05:38:39.011Z,9.29
2023-03-20T05:42:30.517Z,9.35
2023-03-20T05:46:30.732Z,9.39
2023-03-20T05:50:13.187Z,9.47
2023-03-20T05:54:01.301Z,9.52
2023-03-20T05:58:00.636Z,9.55
2023-03-20T06:01:46.574Z,9.63
2023-03-20T06:05:37.275Z,9.71
2023-03-20T06:09:14.085Z,9.76
2023-03-20T06:13:02.238Z,9.83
2023-03-20T06:16:43.918Z,9.89
2023-03-20T06:20:25.950Z,9.96
2023-03-20T06:23:46.887Z,10.04
2023-03-20T06:27:40.728Z,10.08
2023-03-20T06:31:19.222Z,10.23
2023-03-20T06:35:07.013Z,10.28
2023-03-20T06:38:49.146Z,10.37
2023-03-20T06:42:37.363Z,10.46
2023-03-20T06:46:25.869Z,10.56
2023-03-20T06:50:08.177Z,10.50
2023-03-20T06:53:57.139Z,10.40
2023-03-20T06:57:45.335Z,10.61
2023-03-20T07:01:25.050Z,10.85
2023-03-20T07:04:54.624Z,11.00
2023-03-20T07:08:41.352Z,10.98
2023-03-20T07:12:29.223Z,10.91
2023-03-20T07:16:14.788Z,10.83
2023-03-20T07:19:43.155Z,10.83
2023-03-20T07:23:32.520Z,10.81
2023-03-20T07:27:20.207Z,10.81
2023-03-20T07:30:30.473Z,10.80
2023-03-20T07:33:27.430Z,10.78
2023-03-20T07:37:09.875Z,10.76
2023-03-20T07:41:16.857Z,10.84
2023-03-20T07:45:19.211Z,10.93
2023-03-20T07:49:08.321Z,10.92
2023-03-20T07:53:00.469Z,10.93
2023-03-20T07:56:54.877Z,10.97
2023-03-20T08:00:44.970Z,11.07
2023-03-20T08:04:32.684Z,11.20
2023-03-20T08:08:00.904Z,11.43
2023-03-20T08:11:34.478Z,11.57
2023-03-20T08:15:22.975Z,11.73
2023-03-20T08:18:54.266Z,11.69
2023-03-20T08:22:42.598Z,11.77
2023-03-20T08:26:26.752Z,11.88
2023-03-20T08:30:05.935Z,11.95
2023-03-20T08:33:37.678Z,12.11
2023-03-20T08:37:26.177Z,12.33
2023-03-20T08:41:14.179Z,12.52
2023-03-20T08:45:02.504Z,12.60
2023-03-20T08:48:54.893Z,12.75
2023-03-20T08:52:46.324Z,12.98
2023-03-20T08:56:35.615Z,13.15
2023-03-20T09:00:18.928Z,13.19
2023-03-20T09:04:05.911Z,13.11
2023-03-20T09:07:55.657Z,13.00
2023-03-20T09:11:43.627Z,12.83
2023-03-20T09:15:35.465Z,12.76
2023-03-20T09:19:26.735Z,12.77
2023-03-20T09:22:45.375Z,12.76
2023-03-20T09:26:21.948Z,12.97
2023-03-20T09:29:31.946Z,12.93
2023-03-20T09:33:23.464Z,13.05
2023-03-20T09:37:12.164Z,13.13
2023-03-20T09:41:11.773Z,13.21
2023-03-20T09:45:34.799Z,13.15
2023-03-20T09:49:57.638Z,13.26
2023-03-20T09:53:52.878Z,13.15
2023-03-20T09:58:08.985Z,13.32
2023-03-20T10:02:00.649Z,13.66
2023-03-20T10:05:30.712Z,13.97
2023-03-20T10:09:22.181Z,14.10
2023-03-20T10:13:17.861Z,14.29
2023-03-20T10:17:11.798Z,14.57
2023-03-20T10:21:05.528Z,14.71
2023-03-20T10:25:14.645Z,14.69
2023-03-20T10:29:02.858Z,14.84
2023-03-20T10:32:50.336Z,14.85
2023-03-20T10:36:50.566Z,15.03
2023-03-20T10:40:40.861Z,15.23
2023-03-20T10:44:44.906Z,15.56
2023-03-20T10:48:33.244Z,15.45
2023-03-20T10:52:26.737Z,15.60
2023-03-20T10:56:17.027Z,15.61
2023-03-20T11:00:03.015Z,15.62
2023-03-20T11:03:49.860Z,15.97
2023-03-20T11:07:40.813Z,16.33
2023-03-20T11:11:29.521Z,16.67
2023-03-20T11:15:17.915Z,16.54
2023-03-20T11:19:05.943Z,16.90
2023-03-20T11:22:59.862Z,17.15
2023-03-20T11:26:53.591Z,17.32
2023-03-20T11:31:03.204Z,17.39
2023-03-20T11:35:11.268Z,16.91
2023-03-20T11:39:17.206Z,16.95
2023-03-20T11:42:52.035Z,16.88
2023-03-20T11:46:40.897Z,17.36
2023-03-20T11:50:28.459Z,17.06
2023-03-20T11:54:15.898Z,16.64
2023-03-20T11:58:10.967Z,16.56
2023-03-20T12:01:41.650Z,15.90
2023-03-20T12:05:30.873Z,15.87
2023-03-20T12:09:20.969Z,16.25
2023-03-20T12:13:04.915Z,16.73
2023-03-20T12:16:52.977Z,17.07
2023-03-20T12:20:41.785Z,16.67
2023-03-20T12:24:07.003Z,16.68
2023-03-20T12:28:03.916Z,16.80
2023-03-20T12:31:52.756Z,17.20
2023-03-20T12:35:46.688Z,17.56
2023-03-20T12:39:12.154Z,17.54
2023-03-20T12:42:58.809Z,17.58
2023-03-20T12:46:24.301Z,17.68
2023-03-20T12:50:37.055Z,17.64
2023-03-20T12:54:28.631Z,17.25
2023-03-20T12:58:19.916Z,17.74
2023-03-20T13:02:11.711Z,18.42
2023-03-20T13:06:14.411Z,18.37
2023-03-20T13:09:59.423Z,18.11
2023-03-20T13:13:50.484Z,18.02
2023-03-20T13:18:08.868Z,17.76
2023-03-20T13:22:01.139Z,17.35
2023-03-20T13:25:53.207Z,16.94
2023-03-20T13:29:44.305Z,16.58
2023-03-20T13:33:56.918Z,15.68
2023-03-20T13:38:10.882Z,15.12
2023-03-20T13:42:17.840Z,14.85
2023-03-20T13:46:15.484Z,14.74
2023-03-20T13:50:34.069Z,14.44
2023-03-20T13:54:31.423Z,14.72
2023-03-20T13:58:12.368Z,14.82
2023-03-20T14:02:05.272Z,14.60
2023-03-20T14:05:45.338Z,14.54
2023-03-20T14:09:38.308Z,14.43
2023-03-20T14:13:30.514Z,14.70
2023-03-20T14:17:18.681Z,15.03
2023-03-20T14:21:12.076Z,15.26
2023-03-20T14:25:06.308Z,15.32
2023-03-20T14:28:55.821Z,15.33
2023-03-20T14:32:43.954Z,15.33
2023-03-20T14:36:32.480Z,15.16
2023-03-20T14:40:34.587Z,14.93
2023-03-20T14:44:25.442Z,14.83
2023-03-20T14:48:23.104Z,14.87
2023-03-20T14:52:17.372Z,14.85
2023-03-20T14:56:30.043Z,14.89
2023-03-20T15:00:22.305Z,14.91
2023-03-20T15:04:18.951Z,14.69
2023-03-20T15:07:59.589Z,14.60
2023-03-20T15:11:49.936Z,14.39
2023-03-20T15:15:52.607Z,14.25
2023-03-20T15:19:46.113Z,14.14
2023-03-20T15:23:35.121Z,14.10
2023-03-20T15:26:51.774Z,13.94
2023-03-20T15:30:40.065Z,13.64
2023-03-20T15:34:33.951Z,13.57
2023-03-20T15:38:21.866Z,13.27
2023-03-20T15:42:04.932Z,12.99
2023-03-20T15:45:38.909Z,13.00
2023-03-20T15:49:22.678Z,12.95
2023-03-20T15:53:36.443Z,13.02
2023-03-20T15:57:26.946Z,12.84
2023-03-20T16:01:21.834Z,12.68
2023-03-20T16:05:06.088Z,12.76
2023-03-20T16:08:55.032Z,12.75
2023-03-20T16:12:49.234Z,12.61
2023-03-20T16:16:39.342Z,12.53
2023-03-20T16:20:09.793Z,12.46
2023-03-20T16:23:44.013Z,12.45
2023-03-20T16:27:33.441Z,12.49
2023-03-20T16:31:25.527Z,12.38
2023-03-20T16:35:17.824Z,12.40
2023-03-20T16:39:21.498Z,12.38
2023-03-20T16:43:08.370Z,12.44
2023-03-20T16:46:56.872Z,12.36
2023-03-20T16:50:45.240Z,12.45
2023-03-20T16:54:29.314Z,12.45
2023-03-20T16:57:59.048Z,12.37
2023-03-20T17:01:56.363Z,12.40
2023-03-20T17:05:45.346Z,12.35
2023-03-20T17:09:36.511Z,12.30
2023-03-20T17:13:25.082Z,12.36
2023-03-20T17:17:05.497Z,12.30
2023-03-20T17:21:00.013Z,12.34
2023-03-20T17:24:46.851Z,12.29
2023-03-20T17:28:36.325Z,12.26
2023-03-20T17:32:25.175Z,12.29
2023-03-20T17:36:13.275Z,12.30
2023-03-20T17:39:59.544Z,12.32
2023-03-20T17:43:50.524Z,12.21
2023-03-20T17:47:39.332Z,12.29
2023-03-20T17:51:30.779Z,12.31
2023-03-20T17:54:58.762Z,12.30
2023-03-20T17:58:47.244Z,12.34
2023-03-20T18:02:20.123Z,12.35
2023-03-20T18:06:10.118Z,12.26
2023-03-20T18:09:41.429Z,12.24
2023-03-20T18:13:29.918Z,12.15
2023-03-20T18:17:20.807Z,12.18
2023-03-20T18:21:11.721Z,12.15
2023-03-20T18:25:04.033Z,12.09
2023-03-20T18:29:05.391Z,12.04
2023-03-20T18:32:59.628Z,12.00
2023-03-20T18:36:43.683Z,11.94
2023-03-20T18:40:12.097Z,11.94
2023-03-20T18:44:00.298Z,11.91
2023-03-20T18:47:52.553Z,11.83
2023-03-20T18:51:41.725Z,11.73
2023-03-20T18:55:32.163Z,11.71
2023-03-20T18:59:08.300Z,11.62
2023-03-20T19:03:07.008Z,11.56
2023-03-20T19:06:58.150Z,11.60
2023-03-20T19:10:47.577Z,11.61
2023-03-20T19:18:54.042Z,11.47
2023-03-20T19:22:42.886Z,11.47
2023-03-20T19:26:32.786Z,11.38
2023-03-20T19:30:23.636Z,11.32
2023-03-20T19:34:47.219Z,11.43
2023-03-20T19:38:25.668Z,11.47
2023-03-20T19:42:48.791Z,11.42
2023-03-20T19:46:43.193Z,11.39
2023-03-20T19:50:41.295Z,11.47
2023-03-20T19:54:53.002Z,11.37
2023-03-20T19:58:43.373Z,11.29
2023-03-20T20:02:23.854Z,11.27
2023-03-20T20:06:22.156Z,11.28
2023-03-20T20:09:54.490Z,11.28
2023-03-20T20:13:02.701Z,11.29
2023-03-20T20:17:24.626Z,11.29
2023-03-20T20:25:23.117Z,11.20
2023-03-20T20:29:11.528Z,11.16
2023-03-20T20:33:05.202Z,11.20
2023-03-20T20:41:01.940Z,11.38
2023-03-20T20:44:50.545Z,11.29
2023-03-20T20:48:39.981Z,11.11
2023-03-20T20:51:48.131Z,10.99
2023-03-20T20:55:35.512Z,11.06
2023-03-20T20:59:24.424Z,11.06
2023-03-20T21:03:13.060Z,11.00
2023-03-20T21:07:09.887Z,11.00
2023-03-20T21:10:59.771Z,10.95
2023-03-20T21:14:49.089Z,10.95
2023-03-20T21:18:41.756Z,10.87
2023-03-20T21:26:44.584Z,10.88
2023-03-20T21:30:11.526Z,11.05
2023-03-20T21:34:00.632Z,11.14
2023-03-20T21:50:37.132Z,10.96
2023-03-20T22:02:24.888Z,10.81
2023-03-20T22:11:24.905Z,10.83
2023-03-20T22:24:21.906Z,10.56
2023-03-20T22:29:06.970Z,10.58
2023-03-20T22:46:45.241Z,10.59
2023-03-20T22:50:55.436Z,10.57
2023-03-20T22:55:24.164Z,10.56
2023-03-20T22:59:54.094Z,10.53
2023-03-20T23:15:27.082Z,10.53
2023-03-20T23:19:54.353Z,10.44
2023-03-20T23:24:44.805Z,10.39
2023-03-20T23:28:56.392Z,10.27
2023-03-20T23:32:49.416Z,10.31
2023-03-20T23:36:36.844Z,10.21
2023-03-20T23:40:29.202Z,10.34
2023-03-20T23:44:28.109Z,10.40
2023-03-20T23:48:36.165Z,10.36
2023-03-20T23:52:34.307Z,10.39
2023-03-20T23:56:46.619Z,10.40
